sensor_id;sensor_type;location;lat;lon;timestamp;P1;durP1;ratioP1;P2;durP2;ratioP2
16660;SDS011;8444;52.012;5.048;2023-06-14T00:02:13;5.93;;;2.72;;
16660;SDS011;8444;52.012;5.048;2023-06-14T00:04:39;4.15;;;3.30;;
16660;SDS011;8444;52.012;5.048;2023-06-14T00:07:06;6.30;;;2.15;;
16660;SDS011;8444;52.012;5.048;2023-06-14T00:09:34;7.30;;;2.63;;
16660;SDS011;8444;52.012;5.048;2023-06-14T00:12:00;6.00;;;2.40;;
16660;SDS011;8444;52.012;5.048;2023-06-14T00:14:25;5.50;;;2.28;;
16660;SDS011;8444;52.012;5.048;2023-06-14T00:16:50;3.75;;;2.47;;
16660;SDS011;8444;52.012;5.048;2023-06-14T00:19:18;5.18;;;2.42;;
16660;SDS011;8444;52.012;5.048;2023-06-14T00:21:44;4.30;;;2.85;;
16660;SDS011;8444;52.012;5.048;2023-06-14T00:24:10;5.47;;;2.10;;
16660;SDS011;8444;52.012;5.048;2023-06-14T00:26:35;3.58;;;2.38;;
16660;SDS011;8444;52.012;5.048;2023-06-14T00:29:00;8.00;;;2.58;;
16660;SDS011;8444;52.012;5.048;2023-06-14T00:31:26;3.20;;;2.10;;
16660;SDS011;8444;52.012;5.048;2023-06-14T00:33:51;3.63;;;2.17;;
16660;SDS011;8444;52.012;5.048;2023-06-14T00:36:16;7.43;;;2.63;;
16660;SDS011;8444;52.012;5.048;2023-06-14T00:38:41;4.07;;;2.58;;
16660;SDS011;8444;52.012;5.048;2023-06-14T00:41:07;5.07;;;2.25;;
16660;SDS011;8444;52.012;5.048;2023-06-14T00:43:32;6.45;;;2.33;;
16660;SDS011;8444;52.012;5.048;2023-06-14T00:45:57;5.95;;;2.75;;
16660;SDS011;8444;52.012;5.048;2023-06-14T00:48:22;5.25;;;3.00;;
16660;SDS011;8444;52.012;5.048;2023-06-14T00:50:49;4.32;;;2.25;;
16660;SDS011;8444;52.012;5.048;2023-06-14T00:53:15;2.92;;;2.42;;
16660;SDS011;8444;52.012;5.048;2023-06-14T00:55:42;7.43;;;2.60;;
16660;SDS011;8444;52.012;5.048;2023-06-14T00:58:07;4.25;;;2.20;;
16660;SDS011;8444;52.012;5.048;2023-06-14T01:00:33;3.55;;;2.05;;
16660;SDS011;8444;52.012;5.048;2023-06-14T01:02:58;5.55;;;2.65;;
16660;SDS011;8444;52.012;5.048;2023-06-14T01:05:23;4.88;;;2.22;;
16660;SDS011;8444;52.012;5.048;2023-06-14T01:08:13;4.70;;;2.80;;
16660;SDS011;8444;52.012;5.048;2023-06-14T01:10:41;7.15;;;2.63;;
16660;SDS011;8444;52.012;5.048;2023-06-14T01:13:12;3.85;;;2.35;;
16660;SDS011;8444;52.012;5.048;2023-06-14T01:15:38;3.85;;;2.35;;
16660;SDS011;8444;52.012;5.048;2023-06-14T01:18:03;3.97;;;2.65;;
16660;SDS011;8444;52.012;5.048;2023-06-14T01:20:29;3.35;;;2.40;;
16660;SDS011;8444;52.012;5.048;2023-06-14T01:22:55;3.15;;;2.45;;
16660;SDS011;8444;52.012;5.048;2023-06-14T01:25:21;2.45;;;2.10;;
16660;SDS011;8444;52.012;5.048;2023-06-14T01:27:48;4.40;;;2.30;;
16660;SDS011;8444;52.012;5.048;2023-06-14T01:30:14;2.95;;;2.33;;
16660;SDS011;8444;52.012;5.048;2023-06-14T01:32:40;8.73;;;3.00;;
16660;SDS011;8444;52.012;5.048;2023-06-14T01:35:05;6.03;;;2.45;;
16660;SDS011;8444;52.012;5.048;2023-06-14T01:37:30;3.63;;;2.55;;
16660;SDS011;8444;52.012;5.048;2023-06-14T01:39:56;4.80;;;2.83;;
16660;SDS011;8444;52.012;5.048;2023-06-14T01:42:21;7.68;;;2.70;;
16660;SDS011;8444;52.012;5.048;2023-06-14T01:44:47;6.30;;;2.60;;
16660;SDS011;8444;52.012;5.048;2023-06-14T01:47:13;7.07;;;2.40;;
16660;SDS011;8444;52.012;5.048;2023-06-14T01:49:39;3.85;;;2.45;;
16660;SDS011;8444;52.012;5.048;2023-06-14T01:52:05;5.80;;;2.30;;
16660;SDS011;8444;52.012;5.048;2023-06-14T01:54:31;12.57;;;3.40;;
16660;SDS011;8444;52.012;5.048;2023-06-14T01:56:56;5.22;;;2.40;;
16660;SDS011;8444;52.012;5.048;2023-06-14T01:59:21;5.40;;;2.60;;
16660;SDS011;8444;52.012;5.048;2023-06-14T02:01:47;4.28;;;2.70;;
16660;SDS011;8444;52.012;5.048;2023-06-14T02:04:12;8.73;;;2.35;;
16660;SDS011;8444;52.012;5.048;2023-06-14T02:06:37;7.63;;;2.63;;
16660;SDS011;8444;52.012;5.048;2023-06-14T02:09:02;5.68;;;2.15;;
16660;SDS011;8444;52.012;5.048;2023-06-14T02:11:28;4.82;;;2.53;;
16660;SDS011;8444;52.012;5.048;2023-06-14T02:13:53;4.85;;;2.72;;
16660;SDS011;8444;52.012;5.048;2023-06-14T02:16:20;6.30;;;2.88;;
16660;SDS011;8444;52.012;5.048;2023-06-14T02:18:45;3.50;;;2.30;;
16660;SDS011;8444;52.012;5.048;2023-06-14T02:21:10;6.43;;;2.88;;
16660;SDS011;8444;52.012;5.048;2023-06-14T02:23:35;5.32;;;2.65;;
16660;SDS011;8444;52.012;5.048;2023-06-14T02:26:01;5.80;;;2.97;;
16660;SDS011;8444;52.012;5.048;2023-06-14T02:28:27;5.43;;;2.33;;
16660;SDS011;8444;52.012;5.048;2023-06-14T02:30:53;3.72;;;2.30;;
16660;SDS011;8444;52.012;5.048;2023-06-14T02:33:18;3.92;;;2.42;;
16660;SDS011;8444;52.012;5.048;2023-06-14T02:35:43;5.93;;;2.65;;
16660;SDS011;8444;52.012;5.048;2023-06-14T02:38:08;3.83;;;2.58;;
16660;SDS011;8444;52.012;5.048;2023-06-14T02:40:33;3.42;;;1.92;;
16660;SDS011;8444;52.012;5.048;2023-06-14T02:42:58;6.32;;;2.42;;
16660;SDS011;8444;52.012;5.048;2023-06-14T02:45:24;3.25;;;2.53;;
16660;SDS011;8444;52.012;5.048;2023-06-14T02:47:50;2.55;;;2.00;;
16660;SDS011;8444;52.012;5.048;2023-06-14T02:50:16;3.30;;;2.10;;
16660;SDS011;8444;52.012;5.048;2023-06-14T02:52:41;4.10;;;2.42;;
16660;SDS011;8444;52.012;5.048;2023-06-14T02:55:09;4.80;;;2.42;;
16660;SDS011;8444;52.012;5.048;2023-06-14T02:57:35;6.57;;;2.72;;
16660;SDS011;8444;52.012;5.048;2023-06-14T03:00:00;4.25;;;2.17;;
16660;SDS011;8444;52.012;5.048;2023-06-14T03:02:25;7.38;;;2.78;;
16660;SDS011;8444;52.012;5.048;2023-06-14T03:04:50;6.70;;;2.92;;
16660;SDS011;8444;52.012;5.048;2023-06-14T03:07:16;4.03;;;2.42;;
16660;SDS011;8444;52.012;5.048;2023-06-14T03:09:44;4.55;;;2.55;;
16660;SDS011;8444;52.012;5.048;2023-06-14T03:12:10;4.00;;;2.63;;
16660;SDS011;8444;52.012;5.048;2023-06-14T03:14:36;5.82;;;2.72;;
16660;SDS011;8444;52.012;5.048;2023-06-14T03:17:04;7.13;;;2.70;;
16660;SDS011;8444;52.012;5.048;2023-06-14T03:19:30;4.32;;;2.20;;
16660;SDS011;8444;52.012;5.048;2023-06-14T03:21:55;4.38;;;2.17;;
16660;SDS011;8444;52.012;5.048;2023-06-14T03:24:23;5.95;;;2.50;;
16660;SDS011;8444;52.012;5.048;2023-06-14T03:26:48;3.10;;;2.20;;
16660;SDS011;8444;52.012;5.048;2023-06-14T03:29:13;7.75;;;2.30;;
16660;SDS011;8444;52.012;5.048;2023-06-14T03:31:42;4.75;;;2.42;;
16660;SDS011;8444;52.012;5.048;2023-06-14T03:34:20;4.32;;;1.98;;
16660;SDS011;8444;52.012;5.048;2023-06-14T03:36:46;3.78;;;2.60;;
16660;SDS011;8444;52.012;5.048;2023-06-14T03:39:11;3.30;;;2.20;;
16660;SDS011;8444;52.012;5.048;2023-06-14T03:41:36;2.85;;;2.35;;
16660;SDS011;8444;52.012;5.048;2023-06-14T03:44:01;4.47;;;2.20;;
16660;SDS011;8444;52.012;5.048;2023-06-14T03:46:26;5.28;;;2.35;;
16660;SDS011;8444;52.012;5.048;2023-06-14T03:48:52;6.72;;;2.70;;
16660;SDS011;8444;52.012;5.048;2023-06-14T03:51:17;4.63;;;2.50;;
16660;SDS011;8444;52.012;5.048;2023-06-14T03:53:43;4.78;;;2.50;;
16660;SDS011;8444;52.012;5.048;2023-06-14T03:56:08;6.53;;;2.40;;
16660;SDS011;8444;52.012;5.048;2023-06-14T03:58:34;7.20;;;2.58;;
16660;SDS011;8444;52.012;5.048;2023-06-14T04:00:59;2.60;;;2.28;;
16660;SDS011;8444;52.012;5.048;2023-06-14T04:03:25;3.58;;;2.60;;
16660;SDS011;8444;52.012;5.048;2023-06-14T04:05:54;4.47;;;2.45;;
16660;SDS011;8444;52.012;5.048;2023-06-14T04:08:21;5.07;;;2.47;;
16660;SDS011;8444;52.012;5.048;2023-06-14T04:10:47;7.50;;;2.78;;
16660;SDS011;8444;52.012;5.048;2023-06-14T04:13:12;2.90;;;2.03;;
16660;SDS011;8444;52.012;5.048;2023-06-14T04:15:38;8.20;;;2.58;;
16660;SDS011;8444;52.012;5.048;2023-06-14T04:18:06;3.40;;;2.35;;
16660;SDS011;8444;52.012;5.048;2023-06-14T04:20:32;4.75;;;2.15;;
16660;SDS011;8444;52.012;5.048;2023-06-14T04:23:10;4.82;;;2.53;;
16660;SDS011;8444;52.012;5.048;2023-06-14T04:25:37;6.28;;;2.15;;
16660;SDS011;8444;52.012;5.048;2023-06-14T04:28:02;6.38;;;2.45;;
16660;SDS011;8444;52.012;5.048;2023-06-14T04:30:28;8.68;;;2.55;;
16660;SDS011;8444;52.012;5.048;2023-06-14T04:32:56;4.80;;;2.75;;
16660;SDS011;8444;52.012;5.048;2023-06-14T04:35:21;3.63;;;2.42;;
16660;SDS011;8444;52.012;5.048;2023-06-14T04:37:48;4.90;;;2.40;;
16660;SDS011;8444;52.012;5.048;2023-06-14T04:40:14;4.72;;;2.33;;
16660;SDS011;8444;52.012;5.048;2023-06-14T04:42:39;4.50;;;2.45;;
16660;SDS011;8444;52.012;5.048;2023-06-14T04:45:05;5.28;;;2.35;;
16660;SDS011;8444;52.012;5.048;2023-06-14T04:47:31;4.57;;;2.53;;
16660;SDS011;8444;52.012;5.048;2023-06-14T04:49:57;6.53;;;2.58;;
16660;SDS011;8444;52.012;5.048;2023-06-14T04:52:22;4.50;;;2.22;;
16660;SDS011;8444;52.012;5.048;2023-06-14T04:54:48;4.40;;;2.78;;
16660;SDS011;8444;52.012;5.048;2023-06-14T04:57:13;3.92;;;2.58;;
16660;SDS011;8444;52.012;5.048;2023-06-14T04:59:42;3.40;;;1.92;;
16660;SDS011;8444;52.012;5.048;2023-06-14T05:02:09;4.22;;;2.20;;
16660;SDS011;8444;52.012;5.048;2023-06-14T05:04:34;4.47;;;2.83;;
16660;SDS011;8444;52.012;5.048;2023-06-14T05:06:59;2.75;;;2.17;;
16660;SDS011;8444;52.012;5.048;2023-06-14T05:09:26;8.57;;;2.42;;
16660;SDS011;8444;52.012;5.048;2023-06-14T05:11:51;3.97;;;2.25;;
16660;SDS011;8444;52.012;5.048;2023-06-14T05:14:16;6.82;;;2.60;;
16660;SDS011;8444;52.012;5.048;2023-06-14T05:16:42;3.30;;;2.33;;
16660;SDS011;8444;52.012;5.048;2023-06-14T05:19:08;4.20;;;2.42;;
16660;SDS011;8444;52.012;5.048;2023-06-14T05:21:33;7.13;;;2.92;;
16660;SDS011;8444;52.012;5.048;2023-06-14T05:24:02;5.90;;;2.97;;
16660;SDS011;8444;52.012;5.048;2023-06-14T05:26:27;4.15;;;2.13;;
16660;SDS011;8444;52.012;5.048;2023-06-14T05:28:56;4.93;;;2.20;;
16660;SDS011;8444;52.012;5.048;2023-06-14T05:31:22;5.13;;;2.47;;
16660;SDS011;8444;52.012;5.048;2023-06-14T05:33:47;2.90;;;2.15;;
16660;SDS011;8444;52.012;5.048;2023-06-14T05:36:13;3.38;;;2.33;;
16660;SDS011;8444;52.012;5.048;2023-06-14T05:38:38;4.53;;;2.20;;
16660;SDS011;8444;52.012;5.048;2023-06-14T05:41:03;9.23;;;2.38;;
16660;SDS011;8444;52.012;5.048;2023-06-14T05:43:29;3.92;;;2.45;;
16660;SDS011;8444;52.012;5.048;2023-06-14T05:45:54;7.30;;;2.60;;
16660;SDS011;8444;52.012;5.048;2023-06-14T05:48:19;4.80;;;2.60;;
16660;SDS011;8444;52.012;5.048;2023-06-14T05:50:44;5.65;;;2.38;;
16660;SDS011;8444;52.012;5.048;2023-06-14T05:53:09;5.30;;;2.30;;
16660;SDS011;8444;52.012;5.048;2023-06-14T05:55:35;5.32;;;2.67;;
16660;SDS011;8444;52.012;5.048;2023-06-14T05:58:01;7.27;;;2.53;;
16660;SDS011;8444;52.012;5.048;2023-06-14T06:00:26;3.25;;;2.75;;
16660;SDS011;8444;52.012;5.048;2023-06-14T06:02:51;4.60;;;2.85;;
16660;SDS011;8444;52.012;5.048;2023-06-14T06:05:16;3.30;;;2.20;;
16660;SDS011;8444;52.012;5.048;2023-06-14T06:07:42;5.32;;;2.63;;
16660;SDS011;8444;52.012;5.048;2023-06-14T06:10:10;6.18;;;3.13;;
16660;SDS011;8444;52.012;5.048;2023-06-14T06:12:36;5.68;;;2.53;;
16660;SDS011;8444;52.012;5.048;2023-06-14T06:15:01;6.40;;;2.72;;
16660;SDS011;8444;52.012;5.048;2023-06-14T06:17:26;2.80;;;2.20;;
16660;SDS011;8444;52.012;5.048;2023-06-14T06:19:51;6.13;;;2.50;;
16660;SDS011;8444;52.012;5.048;2023-06-14T06:22:17;3.95;;;2.53;;
16660;SDS011;8444;52.012;5.048;2023-06-14T06:24:42;5.45;;;2.65;;
16660;SDS011;8444;52.012;5.048;2023-06-14T06:27:07;4.95;;;2.08;;
16660;SDS011;8444;52.012;5.048;2023-06-14T06:29:33;2.92;;;2.63;;
16660;SDS011;8444;52.012;5.048;2023-06-14T06:31:58;2.67;;;2.30;;
16660;SDS011;8444;52.012;5.048;2023-06-14T06:34:23;5.20;;;2.95;;
16660;SDS011;8444;52.012;5.048;2023-06-14T06:36:48;2.83;;;2.22;;
16660;SDS011;8444;52.012;5.048;2023-06-14T06:39:14;4.13;;;2.42;;
16660;SDS011;8444;52.012;5.048;2023-06-14T06:41:40;8.45;;;3.45;;
16660;SDS011;8444;52.012;5.048;2023-06-14T06:44:05;5.20;;;2.65;;
16660;SDS011;8444;52.012;5.048;2023-06-14T06:46:31;3.45;;;2.22;;
16660;SDS011;8444;52.012;5.048;2023-06-14T06:48:57;6.55;;;2.80;;
16660;SDS011;8444;52.012;5.048;2023-06-14T06:51:22;2.50;;;2.10;;
16660;SDS011;8444;52.012;5.048;2023-06-14T06:53:51;3.23;;;2.30;;
16660;SDS011;8444;52.012;5.048;2023-06-14T06:56:17;6.40;;;2.97;;
16660;SDS011;8444;52.012;5.048;2023-06-14T06:58:42;5.38;;;2.38;;
16660;SDS011;8444;52.012;5.048;2023-06-14T07:01:07;6.05;;;2.45;;
16660;SDS011;8444;52.012;5.048;2023-06-14T07:03:34;4.45;;;2.20;;
16660;SDS011;8444;52.012;5.048;2023-06-14T07:05:59;5.10;;;2.80;;
16660;SDS011;8444;52.012;5.048;2023-06-14T07:08:24;7.60;;;2.58;;
16660;SDS011;8444;52.012;5.048;2023-06-14T07:10:49;5.50;;;2.70;;
16660;SDS011;8444;52.012;5.048;2023-06-14T07:13:15;10.23;;;2.90;;
16660;SDS011;8444;52.012;5.048;2023-06-14T07:15:40;3.42;;;2.90;;
16660;SDS011;8444;52.012;5.048;2023-06-14T07:18:05;3.92;;;2.42;;
16660;SDS011;8444;52.012;5.048;2023-06-14T07:20:31;6.40;;;2.50;;
16660;SDS011;8444;52.012;5.048;2023-06-14T07:22:58;4.97;;;2.40;;
16660;SDS011;8444;52.012;5.048;2023-06-14T07:25:23;7.20;;;2.33;;
16660;SDS011;8444;52.012;5.048;2023-06-14T07:27:48;5.55;;;2.17;;
16660;SDS011;8444;52.012;5.048;2023-06-14T07:30:13;4.43;;;2.40;;
16660;SDS011;8444;52.012;5.048;2023-06-14T07:32:38;5.65;;;2.53;;
16660;SDS011;8444;52.012;5.048;2023-06-14T07:35:04;8.35;;;2.70;;
16660;SDS011;8444;52.012;5.048;2023-06-14T07:37:29;3.30;;;2.38;;
16660;SDS011;8444;52.012;5.048;2023-06-14T07:39:55;6.50;;;3.15;;
16660;SDS011;8444;52.012;5.048;2023-06-14T07:42:20;4.90;;;2.77;;
16660;SDS011;8444;52.012;5.048;2023-06-14T07:44:46;7.15;;;2.30;;
16660;SDS011;8444;52.012;5.048;2023-06-14T07:47:11;4.28;;;2.90;;
16660;SDS011;8444;52.012;5.048;2023-06-14T07:49:36;9.88;;;2.95;;
16660;SDS011;8444;52.012;5.048;2023-06-14T07:52:02;7.22;;;2.92;;
16660;SDS011;8444;52.012;5.048;2023-06-14T07:54:27;5.40;;;2.83;;
16660;SDS011;8444;52.012;5.048;2023-06-14T07:56:53;4.93;;;3.00;;
16660;SDS011;8444;52.012;5.048;2023-06-14T07:59:18;5.47;;;2.40;;
16660;SDS011;8444;52.012;5.048;2023-06-14T08:01:43;6.60;;;2.60;;
16660;SDS011;8444;52.012;5.048;2023-06-14T08:04:13;5.18;;;2.33;;
16660;SDS011;8444;52.012;5.048;2023-06-14T08:06:39;3.67;;;2.17;;
16660;SDS011;8444;52.012;5.048;2023-06-14T08:09:05;5.18;;;2.47;;
16660;SDS011;8444;52.012;5.048;2023-06-14T08:11:30;2.83;;;2.50;;
16660;SDS011;8444;52.012;5.048;2023-06-14T08:13:56;5.00;;;2.20;;
16660;SDS011;8444;52.012;5.048;2023-06-14T08:16:21;5.65;;;2.17;;
16660;SDS011;8444;52.012;5.048;2023-06-14T08:18:46;3.42;;;2.60;;
16660;SDS011;8444;52.012;5.048;2023-06-14T08:21:11;4.90;;;1.85;;
16660;SDS011;8444;52.012;5.048;2023-06-14T08:23:38;7.35;;;2.25;;
16660;SDS011;8444;52.012;5.048;2023-06-14T08:26:03;3.00;;;2.10;;
16660;SDS011;8444;52.012;5.048;2023-06-14T08:28:29;5.53;;;2.20;;
16660;SDS011;8444;52.012;5.048;2023-06-14T08:30:54;3.20;;;2.47;;
16660;SDS011;8444;52.012;5.048;2023-06-14T08:33:20;4.72;;;2.42;;
16660;SDS011;8444;52.012;5.048;2023-06-14T08:35:45;3.00;;;2.03;;
16660;SDS011;8444;52.012;5.048;2023-06-14T08:38:11;2.90;;;2.53;;
16660;SDS011;8444;52.012;5.048;2023-06-14T08:40:37;4.63;;;2.30;;
16660;SDS011;8444;52.012;5.048;2023-06-14T08:43:03;3.58;;;1.90;;
16660;SDS011;8444;52.012;5.048;2023-06-14T08:45:28;5.15;;;1.95;;
16660;SDS011;8444;52.012;5.048;2023-06-14T08:47:53;2.90;;;1.90;;
16660;SDS011;8444;52.012;5.048;2023-06-14T08:50:22;3.85;;;2.03;;
16660;SDS011;8444;52.012;5.048;2023-06-14T08:52:49;5.82;;;1.77;;
16660;SDS011;8444;52.012;5.048;2023-06-14T08:55:17;3.30;;;1.63;;
16660;SDS011;8444;52.012;5.048;2023-06-14T08:57:43;2.15;;;1.55;;
16660;SDS011;8444;52.012;5.048;2023-06-14T09:00:09;6.45;;;1.65;;
16660;SDS011;8444;52.012;5.048;2023-06-14T09:02:38;4.60;;;2.03;;
16660;SDS011;8444;52.012;5.048;2023-06-14T09:05:08;2.90;;;1.50;;
16660;SDS011;8444;52.012;5.048;2023-06-14T09:07:33;2.08;;;1.75;;
16660;SDS011;8444;52.012;5.048;2023-06-14T09:10:09;5.13;;;1.80;;
16660;SDS011;8444;52.012;5.048;2023-06-14T09:12:35;1.55;;;1.45;;
16660;SDS011;8444;52.012;5.048;2023-06-14T09:15:01;1.50;;;1.40;;
16660;SDS011;8444;52.012;5.048;2023-06-14T09:17:31;3.45;;;1.50;;
16660;SDS011;8444;52.012;5.048;2023-06-14T09:19:58;2.00;;;1.80;;
16660;SDS011;8444;52.012;5.048;2023-06-14T09:22:23;3.22;;;1.55;;
16660;SDS011;8444;52.012;5.048;2023-06-14T09:24:48;4.47;;;1.47;;
16660;SDS011;8444;52.012;5.048;2023-06-14T09:27:16;2.13;;;1.43;;
16660;SDS011;8444;52.012;5.048;2023-06-14T09:29:41;3.08;;;1.27;;
16660;SDS011;8444;52.012;5.048;2023-06-14T09:32:06;1.80;;;1.20;;
16660;SDS011;8444;52.012;5.048;2023-06-14T09:34:32;3.00;;;1.50;;
16660;SDS011;8444;52.012;5.048;2023-06-14T09:36:58;2.40;;;1.30;;
16660;SDS011;8444;52.012;5.048;2023-06-14T09:39:23;3.00;;;1.63;;
16660;SDS011;8444;52.012;5.048;2023-06-14T09:41:50;2.00;;;1.33;;
16660;SDS011;8444;52.012;5.048;2023-06-14T09:44:15;1.30;;;1.20;;
16660;SDS011;8444;52.012;5.048;2023-06-14T09:46:42;7.25;;;1.25;;
16660;SDS011;8444;52.012;5.048;2023-06-14T09:49:08;2.07;;;1.40;;
16660;SDS011;8444;52.012;5.048;2023-06-14T09:51:33;1.30;;;1.20;;
16660;SDS011;8444;52.012;5.048;2023-06-14T09:54:03;5.20;;;1.30;;
16660;SDS011;8444;52.012;5.048;2023-06-14T09:56:38;1.88;;;1.20;;
16660;SDS011;8444;52.012;5.048;2023-06-14T09:59:06;3.53;;;1.30;;
16660;SDS011;8444;52.012;5.048;2023-06-14T10:01:33;3.75;;;1.55;;
16660;SDS011;8444;52.012;5.048;2023-06-14T10:04:00;5.57;;;1.60;;
16660;SDS011;8444;52.012;5.048;2023-06-14T10:06:27;2.95;;;1.08;;
16660;SDS011;8444;52.012;5.048;2023-06-14T10:08:53;1.85;;;1.20;;
16660;SDS011;8444;52.012;5.048;2023-06-14T10:11:20;1.48;;;1.00;;
16660;SDS011;8444;52.012;5.048;2023-06-14T10:13:45;3.30;;;1.70;;
16660;SDS011;8444;52.012;5.048;2023-06-14T10:16:23;4.35;;;1.02;;
16660;SDS011;8444;52.012;5.048;2023-06-14T10:24:15;3.45;;;1.00;;
16660;SDS011;8444;52.012;5.048;2023-06-14T10:26:50;1.00;;;0.90;;
16660;SDS011;8444;52.012;5.048;2023-06-14T10:29:15;6.88;;;1.58;;
16660;SDS011;8444;52.012;5.048;2023-06-14T10:31:41;1.60;;;1.30;;
16660;SDS011;8444;52.012;5.048;2023-06-14T10:34:07;1.45;;;1.27;;
16660;SDS011;8444;52.012;5.048;2023-06-14T10:36:32;2.50;;;1.23;;
16660;SDS011;8444;52.012;5.048;2023-06-14T10:41:26;1.10;;;0.75;;
16660;SDS011;8444;52.012;5.048;2023-06-14T10:43:52;2.33;;;1.20;;
16660;SDS011;8444;52.012;5.048;2023-06-14T10:46:18;2.85;;;1.38;;
16660;SDS011;8444;52.012;5.048;2023-06-14T10:48:46;1.63;;;1.33;;
16660;SDS011;8444;52.012;5.048;2023-06-14T10:51:18;1.45;;;1.00;;
16660;SDS011;8444;52.012;5.048;2023-06-14T10:53:46;3.65;;;1.23;;
16660;SDS011;8444;52.012;5.048;2023-06-14T10:56:33;2.65;;;1.00;;
16660;SDS011;8444;52.012;5.048;2023-06-14T10:58:58;2.85;;;1.30;;
16660;SDS011;8444;52.012;5.048;2023-06-14T11:01:28;3.25;;;1.65;;
16660;SDS011;8444;52.012;5.048;2023-06-14T11:03:57;2.67;;;1.20;;
16660;SDS011;8444;52.012;5.048;2023-06-14T11:06:26;1.95;;;0.93;;
16660;SDS011;8444;52.012;5.048;2023-06-14T11:11:25;1.52;;;1.00;;
16660;SDS011;8444;52.012;5.048;2023-06-14T11:13:55;1.08;;;0.90;;
16660;SDS011;8444;52.012;5.048;2023-06-14T11:16:21;2.10;;;1.00;;
16660;SDS011;8444;52.012;5.048;2023-06-14T11:18:50;2.53;;;0.80;;
16660;SDS011;8444;52.012;5.048;2023-06-14T11:21:18;3.00;;;1.20;;
16660;SDS011;8444;52.012;5.048;2023-06-14T11:23:53;3.95;;;1.40;;
16660;SDS011;8444;52.012;5.048;2023-06-14T11:26:27;1.10;;;1.00;;
16660;SDS011;8444;52.012;5.048;2023-06-14T11:28:54;2.67;;;1.02;;
16660;SDS011;8444;52.012;5.048;2023-06-14T11:31:20;1.80;;;0.77;;
16660;SDS011;8444;52.012;5.048;2023-06-14T11:33:49;2.80;;;1.00;;
16660;SDS011;8444;52.012;5.048;2023-06-14T11:36:15;10.30;;;1.45;;
16660;SDS011;8444;52.012;5.048;2023-06-14T11:38:40;1.42;;;0.93;;
16660;SDS011;8444;52.012;5.048;2023-06-14T11:41:05;0.93;;;0.68;;
16660;SDS011;8444;52.012;5.048;2023-06-14T11:43:31;2.10;;;1.38;;
16660;SDS011;8444;52.012;5.048;2023-06-14T11:45:59;3.28;;;1.10;;
16660;SDS011;8444;52.012;5.048;2023-06-14T11:48:35;3.63;;;1.20;;
16660;SDS011;8444;52.012;5.048;2023-06-14T11:51:00;2.55;;;0.93;;
16660;SDS011;8444;52.012;5.048;2023-06-14T11:53:25;5.93;;;1.25;;
16660;SDS011;8444;52.012;5.048;2023-06-14T11:55:51;1.40;;;1.10;;
16660;SDS011;8444;52.012;5.048;2023-06-14T11:58:16;3.30;;;1.38;;
16660;SDS011;8444;52.012;5.048;2023-06-14T12:00:42;2.90;;;0.95;;
16660;SDS011;8444;52.012;5.048;2023-06-14T12:03:08;1.58;;;0.93;;
16660;SDS011;8444;52.012;5.048;2023-06-14T12:05:33;5.22;;;1.38;;
16660;SDS011;8444;52.012;5.048;2023-06-14T12:07:59;1.83;;;1.50;;
16660;SDS011;8444;52.012;5.048;2023-06-14T12:10:25;3.38;;;1.10;;
16660;SDS011;8444;52.012;5.048;2023-06-14T12:12:50;1.48;;;1.27;;
16660;SDS011;8444;52.012;5.048;2023-06-14T12:15:15;2.70;;;1.20;;
16660;SDS011;8444;52.012;5.048;2023-06-14T12:17:41;2.78;;;1.13;;
16660;SDS011;8444;52.012;5.048;2023-06-14T12:20:16;2.60;;;0.88;;
16660;SDS011;8444;52.012;5.048;2023-06-14T12:22:50;1.40;;;1.10;;
16660;SDS011;8444;52.012;5.048;2023-06-14T12:25:35;4.63;;;1.50;;
16660;SDS011;8444;52.012;5.048;2023-06-14T12:28:05;1.60;;;1.40;;
16660;SDS011;8444;52.012;5.048;2023-06-14T12:30:31;2.00;;;1.35;;
16660;SDS011;8444;52.012;5.048;2023-06-14T12:32:56;3.60;;;1.65;;
16660;SDS011;8444;52.012;5.048;2023-06-14T12:35:21;3.47;;;1.20;;
16660;SDS011;8444;52.012;5.048;2023-06-14T12:37:47;2.15;;;1.10;;
16660;SDS011;8444;52.012;5.048;2023-06-14T12:40:12;1.83;;;1.30;;
16660;SDS011;8444;52.012;5.048;2023-06-14T12:42:38;1.98;;;1.23;;
16660;SDS011;8444;52.012;5.048;2023-06-14T12:45:03;2.17;;;1.05;;
16660;SDS011;8444;52.012;5.048;2023-06-14T12:47:28;3.35;;;1.40;;
16660;SDS011;8444;52.012;5.048;2023-06-14T12:49:54;2.17;;;1.25;;
16660;SDS011;8444;52.012;5.048;2023-06-14T12:52:19;1.30;;;0.90;;
16660;SDS011;8444;52.012;5.048;2023-06-14T12:54:44;2.40;;;1.48;;
16660;SDS011;8444;52.012;5.048;2023-06-14T12:57:10;2.13;;;1.02;;
16660;SDS011;8444;52.012;5.048;2023-06-14T12:59:35;1.23;;;1.13;;
16660;SDS011;8444;52.012;5.048;2023-06-14T13:02:16;2.60;;;1.00;;
16660;SDS011;8444;52.012;5.048;2023-06-14T13:04:42;1.30;;;1.10;;
16660;SDS011;8444;52.012;5.048;2023-06-14T13:07:08;1.10;;;1.02;;
16660;SDS011;8444;52.012;5.048;2023-06-14T13:09:33;1.80;;;1.20;;
16660;SDS011;8444;52.012;5.048;2023-06-14T13:11:59;2.85;;;1.77;;
16660;SDS011;8444;52.012;5.048;2023-06-14T13:14:24;4.47;;;1.20;;
16660;SDS011;8444;52.012;5.048;2023-06-14T13:16:49;3.95;;;1.08;;
16660;SDS011;8444;52.012;5.048;2023-06-14T13:19:14;1.30;;;1.05;;
16660;SDS011;8444;52.012;5.048;2023-06-14T13:21:40;3.42;;;1.13;;
16660;SDS011;8444;52.012;5.048;2023-06-14T13:24:05;1.27;;;1.03;;
16660;SDS011;8444;52.012;5.048;2023-06-14T13:26:30;1.27;;;1.17;;
16660;SDS011;8444;52.012;5.048;2023-06-14T13:28:56;3.07;;;1.23;;
16660;SDS011;8444;52.012;5.048;2023-06-14T13:31:21;2.83;;;1.58;;
16660;SDS011;8444;52.012;5.048;2023-06-14T13:33:46;2.80;;;1.43;;
16660;SDS011;8444;52.012;5.048;2023-06-14T13:36:11;1.50;;;0.80;;
16660;SDS011;8444;52.012;5.048;2023-06-14T13:38:36;2.17;;;0.70;;
16660;SDS011;8444;52.012;5.048;2023-06-14T13:41:02;1.77;;;0.73;;
16660;SDS011;8444;52.012;5.048;2023-06-14T13:43:27;1.90;;;0.80;;
16660;SDS011;8444;52.012;5.048;2023-06-14T13:45:53;1.40;;;1.07;;
16660;SDS011;8444;52.012;5.048;2023-06-14T13:48:18;2.50;;;1.08;;
16660;SDS011;8444;52.012;5.048;2023-06-14T13:50:44;1.40;;;0.95;;
16660;SDS011;8444;52.012;5.048;2023-06-14T13:53:10;1.95;;;1.05;;
16660;SDS011;8444;52.012;5.048;2023-06-14T13:55:36;1.30;;;1.10;;
16660;SDS011;8444;52.012;5.048;2023-06-14T13:58:01;1.15;;;0.98;;
16660;SDS011;8444;52.012;5.048;2023-06-14T14:00:26;2.60;;;2.03;;
16660;SDS011;8444;52.012;5.048;2023-06-14T14:02:52;2.77;;;1.00;;
16660;SDS011;8444;52.012;5.048;2023-06-14T14:05:17;1.83;;;0.98;;
16660;SDS011;8444;52.012;5.048;2023-06-14T14:07:42;3.00;;;1.23;;
16660;SDS011;8444;52.012;5.048;2023-06-14T14:10:08;2.20;;;1.27;;
16660;SDS011;8444;52.012;5.048;2023-06-14T14:12:33;1.27;;;0.93;;
16660;SDS011;8444;52.012;5.048;2023-06-14T14:14:58;6.32;;;1.42;;
16660;SDS011;8444;52.012;5.048;2023-06-14T14:17:24;2.10;;;1.02;;
16660;SDS011;8444;52.012;5.048;2023-06-14T14:19:49;1.20;;;1.10;;
16660;SDS011;8444;52.012;5.048;2023-06-14T14:22:14;1.43;;;1.03;;
16660;SDS011;8444;52.012;5.048;2023-06-14T14:24:40;1.83;;;0.90;;
16660;SDS011;8444;52.012;5.048;2023-06-14T14:27:05;1.73;;;1.10;;
16660;SDS011;8444;52.012;5.048;2023-06-14T14:29:31;3.75;;;1.10;;
16660;SDS011;8444;52.012;5.048;2023-06-14T14:31:56;2.13;;;1.10;;
16660;SDS011;8444;52.012;5.048;2023-06-14T14:34:22;6.03;;;1.60;;
16660;SDS011;8444;52.012;5.048;2023-06-14T14:36:47;4.93;;;1.50;;
16660;SDS011;8444;52.012;5.048;2023-06-14T14:39:13;2.35;;;1.00;;
16660;SDS011;8444;52.012;5.048;2023-06-14T14:41:39;1.60;;;1.03;;
16660;SDS011;8444;52.012;5.048;2023-06-14T14:44:05;1.50;;;1.05;;
16660;SDS011;8444;52.012;5.048;2023-06-14T14:46:30;3.95;;;1.10;;
16660;SDS011;8444;52.012;5.048;2023-06-14T14:48:55;1.60;;;1.43;;
16660;SDS011;8444;52.012;5.048;2023-06-14T14:51:20;2.60;;;1.20;;
16660;SDS011;8444;52.012;5.048;2023-06-14T14:53:45;2.30;;;1.20;;
16660;SDS011;8444;52.012;5.048;2023-06-14T14:56:11;3.13;;;1.10;;
16660;SDS011;8444;52.012;5.048;2023-06-14T14:58:37;2.63;;;0.93;;
16660;SDS011;8444;52.012;5.048;2023-06-14T15:01:02;2.00;;;1.42;;
16660;SDS011;8444;52.012;5.048;2023-06-14T15:03:27;3.08;;;1.05;;
16660;SDS011;8444;52.012;5.048;2023-06-14T15:05:53;1.98;;;1.10;;